Galway, Ireland

1:13 PM IST on May 27, 2015 (GMT +0100)
ICOGALWA4 | | Change Station
CLOSE
Current Station
Personal Weather Station
Location: Galway City, Co. Galway
Elevation: 75 ft
Nearby Weather Stations

Elev 75 ft 53.29 °N, 9.07 °W | Updated 9 seconds ago

Light Rain
Light Rain
49.5 °F
Feels Like 47 °F
N
7.0
Wind Variable Wind from SW
Gusts 15.0 mph

Today
High -- | Low -- °F
--% Chance of Precip.
Yesterday
High -- | Low -- °F
Precip. -- in
5:20 AM 9:46 PM
Waxing Gibbous, 67% visible
Pressure 30.09 in
Visibility 5.0 miles
Clouds Few 1700 ft
Mostly Cloudy 2500 ft
Overcast 3400 ft
Windchill 47 °F
Dew Point 48 °F
Humidity 95%
Rainfall 0.18 in
Snow Depth Not available.
UV 0.6 out of 12
Pollen Not available.
Air Quality Not available.
Flu Activity Not available.
METAR EINN 271200Z 20009KT 8000 -RA FEW017 BKN025 OVC034 10/08 Q1019 TEMPO 5000 BKN012

More Conditions Fewer Conditions

Pressure 30.09 in
Visibility 5.0 miles
Clouds Few 1700 ft
Mostly Cloudy 2500 ft
Overcast 3400 ft
Windchill 47 °F
Dew Point 48 °F
Humidity 95%
Rainfall 0.18 in
Snow Depth Not available.
UV 0.6 out of 12
Pollen Not available.
Air Quality Not available.
Flu Activity Not available.
METAR EINN 271200Z 20009KT 8000 -RA FEW017 BKN025 OVC034 10/08 Q1019 TEMPO 5000 BKN012

More Conditions Fewer Conditions

10-Day Weather Forecast

Almanac

Astronomy

May. 27, 2015 Rise Set
Actual Time
Civil Twilight
Nautical Twilight
Astronomical Twilight
Moon
Length of Visible Light
Length of Day
Tomorrow will be .
, % of the Moon is Illuminated

Today's Extremes

Country Highs Country Lows

Community

WunderPhotos

Upload Photos

1,824,642 photos uploaded!

WunderBlogs® & News

Nearby

Air Quality

  Air Quality AQ Index Pollutant
Not available.

Snow Depth

Station Depth Elevation

Earthquake Activity

City Distance Mag. Time & Date
Minimum magnitude displayed is 2.5.

Coastal Water Temperatures

Place Temperature

Stations

Nearby Weather Stations

Station Location Temp. Windchill Dew Point Humidity Wind Precip. Elev Updated Type